sensor_id;sensor_type;location;lat;lon;timestamp;P1;durP1;ratioP1;P2;durP2;ratioP2
84519;SDS011;74755;43.084;0.132;2024-03-23T00:53:02;4.50;;;2.70;;
84519;SDS011;74755;43.084;0.132;2024-03-23T00:55:28;3.20;;;2.45;;
84519;SDS011;74755;43.084;0.132;2024-03-23T00:57:54;3.85;;;2.80;;
84519;SDS011;74755;43.084;0.132;2024-03-23T01:00:20;4.60;;;2.60;;
84519;SDS011;74755;43.084;0.132;2024-03-23T01:02:46;4.32;;;3.22;;
84519;SDS011;74755;43.084;0.132;2024-03-23T01:05:12;4.32;;;2.65;;
84519;SDS011;74755;43.084;0.132;2024-03-23T01:07:38;4.53;;;3.00;;
84519;SDS011;74755;43.084;0.132;2024-03-23T01:10:04;5.50;;;3.50;;
84519;SDS011;74755;43.084;0.132;2024-03-23T01:12:31;6.00;;;3.50;;
84519;SDS011;74755;43.084;0.132;2024-03-23T01:14:57;6.47;;;3.65;;
84519;SDS011;74755;43.084;0.132;2024-03-23T01:17:23;6.72;;;3.63;;
84519;SDS011;74755;43.084;0.132;2024-03-23T01:19:49;6.15;;;3.80;;
84519;SDS011;74755;43.084;0.132;2024-03-23T01:22:15;7.80;;;4.38;;
84519;SDS011;74755;43.084;0.132;2024-03-23T01:24:41;6.15;;;4.05;;
84519;SDS011;74755;43.084;0.132;2024-03-23T01:27:08;6.07;;;4.13;;
84519;SDS011;74755;43.084;0.132;2024-03-23T01:29:34;6.68;;;4.40;;
84519;SDS011;74755;43.084;0.132;2024-03-23T01:32:00;5.97;;;4.18;;
84519;SDS011;74755;43.084;0.132;2024-03-23T01:34:26;7.70;;;4.75;;
84519;SDS011;74755;43.084;0.132;2024-03-23T01:36:53;8.23;;;4.65;;
84519;SDS011;74755;43.084;0.132;2024-03-23T01:39:19;7.63;;;4.72;;
84519;SDS011;74755;43.084;0.132;2024-03-23T01:41:45;6.28;;;3.90;;
84519;SDS011;74755;43.084;0.132;2024-03-23T01:44:11;8.40;;;3.90;;
84519;SDS011;74755;43.084;0.132;2024-03-23T01:46:39;6.82;;;4.57;;
84519;SDS011;74755;43.084;0.132;2024-03-23T01:49:06;7.63;;;4.38;;
84519;SDS011;74755;43.084;0.132;2024-03-23T01:51:33;8.18;;;3.70;;
84519;SDS011;74755;43.084;0.132;2024-03-23T01:54:00;5.18;;;3.53;;
84519;SDS011;74755;43.084;0.132;2024-03-23T01:56:28;3.78;;;2.80;;
84519;SDS011;74755;43.084;0.132;2024-03-23T01:58:55;3.67;;;3.00;;
84519;SDS011;74755;43.084;0.132;2024-03-23T02:01:21;4.00;;;2.80;;
84519;SDS011;74755;43.084;0.132;2024-03-23T02:03:47;3.88;;;2.85;;
84519;SDS011;74755;43.084;0.132;2024-03-23T02:06:13;4.20;;;3.10;;
84519;SDS011;74755;43.084;0.132;2024-03-23T02:08:39;4.47;;;3.03;;
84519;SDS011;74755;43.084;0.132;2024-03-23T02:11:05;5.22;;;2.97;;
84519;SDS011;74755;43.084;0.132;2024-03-23T02:13:32;4.82;;;2.78;;
84519;SDS011;74755;43.084;0.132;2024-03-23T02:15:58;4.32;;;3.00;;
84519;SDS011;74755;43.084;0.132;2024-03-23T02:18:24;4.07;;;2.72;;
84519;SDS011;74755;43.084;0.132;2024-03-23T02:20:50;4.07;;;2.72;;
84519;SDS011;74755;43.084;0.132;2024-03-23T02:23:16;3.30;;;2.85;;
84519;SDS011;74755;43.084;0.132;2024-03-23T02:25:46;4.07;;;2.63;;
84519;SDS011;74755;43.084;0.132;2024-03-23T02:28:12;4.43;;;2.97;;
84519;SDS011;74755;43.084;0.132;2024-03-23T02:30:38;4.10;;;2.53;;
84519;SDS011;74755;43.084;0.132;2024-03-23T02:33:04;3.70;;;2.60;;
84519;SDS011;74755;43.084;0.132;2024-03-23T02:35:30;2.75;;;2.30;;
84519;SDS011;74755;43.084;0.132;2024-03-23T02:37:57;4.32;;;2.75;;
84519;SDS011;74755;43.084;0.132;2024-03-23T02:40:23;4.65;;;2.60;;
84519;SDS011;74755;43.084;0.132;2024-03-23T02:42:49;4.32;;;2.63;;
84519;SDS011;74755;43.084;0.132;2024-03-23T02:45:15;3.15;;;2.40;;
84519;SDS011;74755;43.084;0.132;2024-03-23T02:47:42;3.75;;;2.58;;
84519;SDS011;74755;43.084;0.132;2024-03-23T02:50:08;3.28;;;2.42;;
84519;SDS011;74755;43.084;0.132;2024-03-23T02:52:34;3.40;;;2.25;;
84519;SDS011;74755;43.084;0.132;2024-03-23T02:55:01;4.03;;;2.55;;
84519;SDS011;74755;43.084;0.132;2024-03-23T02:57:27;3.13;;;2.53;;
84519;SDS011;74755;43.084;0.132;2024-03-23T02:59:53;4.03;;;2.42;;
84519;SDS011;74755;43.084;0.132;2024-03-23T03:02:19;3.67;;;2.35;;
84519;SDS011;74755;43.084;0.132;2024-03-23T03:04:46;4.72;;;2.58;;
84519;SDS011;74755;43.084;0.132;2024-03-23T03:07:12;3.28;;;2.65;;
84519;SDS011;74755;43.084;0.132;2024-03-23T03:09:39;4.03;;;2.92;;
84519;SDS011;74755;43.084;0.132;2024-03-23T03:12:05;4.20;;;3.03;;
84519;SDS011;74755;43.084;0.132;2024-03-23T03:14:31;5.57;;;3.20;;
84519;SDS011;74755;43.084;0.132;2024-03-23T03:16:57;4.47;;;3.47;;
84519;SDS011;74755;43.084;0.132;2024-03-23T03:19:24;4.63;;;3.15;;
84519;SDS011;74755;43.084;0.132;2024-03-23T03:21:50;6.38;;;3.92;;
84519;SDS011;74755;43.084;0.132;2024-03-23T03:24:16;6.20;;;4.13;;
84519;SDS011;74755;43.084;0.132;2024-03-23T03:26:42;4.75;;;3.28;;
84519;SDS011;74755;43.084;0.132;2024-03-23T03:29:08;5.35;;;3.20;;
84519;SDS011;74755;43.084;0.132;2024-03-23T03:31:34;5.15;;;3.22;;
84519;SDS011;74755;43.084;0.132;2024-03-23T03:34:00;4.68;;;3.30;;
84519;SDS011;74755;43.084;0.132;2024-03-23T03:36:27;4.75;;;3.10;;
84519;SDS011;74755;43.084;0.132;2024-03-23T03:38:53;6.20;;;3.25;;
84519;SDS011;74755;43.084;0.132;2024-03-23T03:41:19;5.18;;;3.13;;
84519;SDS011;74755;43.084;0.132;2024-03-23T03:43:45;5.88;;;3.38;;
84519;SDS011;74755;43.084;0.132;2024-03-23T03:46:11;4.90;;;3.45;;
84519;SDS011;74755;43.084;0.132;2024-03-23T03:48:37;7.05;;;3.60;;
84519;SDS011;74755;43.084;0.132;2024-03-23T03:51:04;6.68;;;4.03;;
84519;SDS011;74755;43.084;0.132;2024-03-23T03:53:30;7.15;;;3.85;;
84519;SDS011;74755;43.084;0.132;2024-03-23T03:56:00;8.57;;;4.03;;
84519;SDS011;74755;43.084;0.132;2024-03-23T03:58:26;7.30;;;3.97;;
84519;SDS011;74755;43.084;0.132;2024-03-23T04:00:52;9.95;;;5.05;;
84519;SDS011;74755;43.084;0.132;2024-03-23T04:03:18;6.68;;;4.57;;
84519;SDS011;74755;43.084;0.132;2024-03-23T04:05:53;8.30;;;4.65;;
84519;SDS011;74755;43.084;0.132;2024-03-23T04:08:20;8.80;;;4.75;;
84519;SDS011;74755;43.084;0.132;2024-03-23T04:10:46;10.35;;;4.25;;
84519;SDS011;74755;43.084;0.132;2024-03-23T04:13:12;7.35;;;4.50;;
84519;SDS011;74755;43.084;0.132;2024-03-23T04:15:39;9.32;;;4.50;;
84519;SDS011;74755;43.084;0.132;2024-03-23T04:18:05;7.50;;;4.85;;
84519;SDS011;74755;43.084;0.132;2024-03-23T04:20:31;9.70;;;4.78;;
84519;SDS011;74755;43.084;0.132;2024-03-23T04:22:57;8.70;;;4.93;;
84519;SDS011;74755;43.084;0.132;2024-03-23T04:25:23;12.73;;;5.30;;
84519;SDS011;74755;43.084;0.132;2024-03-23T04:27:49;10.93;;;5.10;;
84519;SDS011;74755;43.084;0.132;2024-03-23T04:30:16;8.65;;;5.20;;
84519;SDS011;74755;43.084;0.132;2024-03-23T04:32:42;12.30;;;5.50;;
84519;SDS011;74755;43.084;0.132;2024-03-23T04:35:09;11.02;;;5.65;;
84519;SDS011;74755;43.084;0.132;2024-03-23T04:37:38;9.93;;;5.50;;
84519;SDS011;74755;43.084;0.132;2024-03-23T04:40:07;9.18;;;5.47;;
84519;SDS011;74755;43.084;0.132;2024-03-23T04:42:33;12.45;;;6.20;;
84519;SDS011;74755;43.084;0.132;2024-03-23T04:44:59;11.48;;;5.13;;
84519;SDS011;74755;43.084;0.132;2024-03-23T04:47:25;12.00;;;4.70;;
84519;SDS011;74755;43.084;0.132;2024-03-23T04:49:51;10.30;;;4.05;;
84519;SDS011;74755;43.084;0.132;2024-03-23T04:52:18;13.50;;;4.30;;
84519;SDS011;74755;43.084;0.132;2024-03-23T04:54:44;10.98;;;3.35;;
84519;SDS011;74755;43.084;0.132;2024-03-23T04:57:13;12.15;;;4.97;;
84519;SDS011;74755;43.084;0.132;2024-03-23T04:59:39;10.43;;;3.97;;
84519;SDS011;74755;43.084;0.132;2024-03-23T05:02:05;12.85;;;4.38;;
84519;SDS011;74755;43.084;0.132;2024-03-23T05:04:31;8.63;;;3.30;;
84519;SDS011;74755;43.084;0.132;2024-03-23T05:06:57;13.23;;;3.92;;
84519;SDS011;74755;43.084;0.132;2024-03-23T05:09:23;10.27;;;3.60;;
84519;SDS011;74755;43.084;0.132;2024-03-23T05:11:49;12.82;;;4.15;;
84519;SDS011;74755;43.084;0.132;2024-03-23T05:14:15;15.88;;;4.13;;
84519;SDS011;74755;43.084;0.132;2024-03-23T05:16:41;7.32;;;3.15;;
84519;SDS011;74755;43.084;0.132;2024-03-23T05:19:08;9.45;;;3.90;;
84519;SDS011;74755;43.084;0.132;2024-03-23T05:21:34;12.75;;;4.18;;
84519;SDS011;74755;43.084;0.132;2024-03-23T05:24:00;10.60;;;3.30;;
84519;SDS011;74755;43.084;0.132;2024-03-23T05:26:26;8.90;;;3.45;;
84519;SDS011;74755;43.084;0.132;2024-03-23T05:28:52;8.10;;;3.55;;
84519;SDS011;74755;43.084;0.132;2024-03-23T05:31:24;10.15;;;3.40;;
84519;SDS011;74755;43.084;0.132;2024-03-23T05:33:50;7.80;;;3.70;;
84519;SDS011;74755;43.084;0.132;2024-03-23T05:36:17;10.43;;;2.78;;
84519;SDS011;74755;43.084;0.132;2024-03-23T05:38:43;7.20;;;2.90;;
84519;SDS011;74755;43.084;0.132;2024-03-23T05:41:09;4.90;;;2.63;;
84519;SDS011;74755;43.084;0.132;2024-03-23T05:43:35;8.20;;;3.05;;
84519;SDS011;74755;43.084;0.132;2024-03-23T05:46:01;8.63;;;3.63;;
84519;SDS011;74755;43.084;0.132;2024-03-23T05:48:28;4.65;;;2.72;;
84519;SDS011;74755;43.084;0.132;2024-03-23T05:50:55;7.05;;;2.92;;
84519;SDS011;74755;43.084;0.132;2024-03-23T05:53:21;7.47;;;2.97;;
84519;SDS011;74755;43.084;0.132;2024-03-23T05:55:47;8.65;;;2.60;;
84519;SDS011;74755;43.084;0.132;2024-03-23T05:58:17;6.68;;;2.70;;
84519;SDS011;74755;43.084;0.132;2024-03-23T06:00:43;6.55;;;2.55;;
84519;SDS011;74755;43.084;0.132;2024-03-23T06:03:09;6.55;;;2.65;;
84519;SDS011;74755;43.084;0.132;2024-03-23T06:05:36;10.27;;;3.42;;
84519;SDS011;74755;43.084;0.132;2024-03-23T06:08:02;7.15;;;2.83;;
84519;SDS011;74755;43.084;0.132;2024-03-23T06:10:28;7.20;;;2.80;;
84519;SDS011;74755;43.084;0.132;2024-03-23T06:12:54;11.32;;;3.00;;
84519;SDS011;74755;43.084;0.132;2024-03-23T06:15:21;13.88;;;3.28;;
84519;SDS011;74755;43.084;0.132;2024-03-23T06:17:47;7.00;;;3.20;;
84519;SDS011;74755;43.084;0.132;2024-03-23T06:20:14;8.30;;;3.50;;
84519;SDS011;74755;43.084;0.132;2024-03-23T06:22:40;4.63;;;2.83;;
84519;SDS011;74755;43.084;0.132;2024-03-23T06:25:06;12.15;;;2.75;;
84519;SDS011;74755;43.084;0.132;2024-03-23T06:27:32;7.47;;;2.90;;
84519;SDS011;74755;43.084;0.132;2024-03-23T06:29:59;6.03;;;2.65;;
84519;SDS011;74755;43.084;0.132;2024-03-23T06:32:25;4.45;;;2.33;;
84519;SDS011;74755;43.084;0.132;2024-03-23T06:34:51;6.22;;;2.65;;
84519;SDS011;74755;43.084;0.132;2024-03-23T06:37:17;7.20;;;2.20;;
84519;SDS011;74755;43.084;0.132;2024-03-23T06:39:45;7.95;;;2.38;;
84519;SDS011;74755;43.084;0.132;2024-03-23T06:42:11;5.32;;;2.60;;
84519;SDS011;74755;43.084;0.132;2024-03-23T06:44:37;3.80;;;2.42;;
84519;SDS011;74755;43.084;0.132;2024-03-23T06:47:04;5.78;;;2.35;;
84519;SDS011;74755;43.084;0.132;2024-03-23T06:49:30;12.20;;;2.83;;
84519;SDS011;74755;43.084;0.132;2024-03-23T06:51:56;3.90;;;2.33;;
84519;SDS011;74755;43.084;0.132;2024-03-23T06:54:23;4.60;;;2.25;;
84519;SDS011;74755;43.084;0.132;2024-03-23T06:56:50;10.02;;;3.13;;
84519;SDS011;74755;43.084;0.132;2024-03-23T06:59:16;5.75;;;2.58;;
84519;SDS011;74755;43.084;0.132;2024-03-23T07:01:42;7.15;;;2.30;;
84519;SDS011;74755;43.084;0.132;2024-03-23T07:04:08;6.35;;;2.50;;
84519;SDS011;74755;43.084;0.132;2024-03-23T07:06:42;7.20;;;2.70;;
84519;SDS011;74755;43.084;0.132;2024-03-23T07:09:09;5.22;;;2.45;;
84519;SDS011;74755;43.084;0.132;2024-03-23T07:11:35;4.80;;;2.72;;
84519;SDS011;74755;43.084;0.132;2024-03-23T07:14:01;5.70;;;2.83;;
84519;SDS011;74755;43.084;0.132;2024-03-23T07:16:30;6.75;;;2.70;;
84519;SDS011;74755;43.084;0.132;2024-03-23T07:18:56;7.82;;;2.40;;
84519;SDS011;74755;43.084;0.132;2024-03-23T07:21:23;7.32;;;2.80;;
84519;SDS011;74755;43.084;0.132;2024-03-23T07:23:49;5.35;;;2.50;;
84519;SDS011;74755;43.084;0.132;2024-03-23T07:26:15;6.47;;;2.78;;
84519;SDS011;74755;43.084;0.132;2024-03-23T07:28:43;7.57;;;2.88;;
84519;SDS011;74755;43.084;0.132;2024-03-23T07:31:10;6.28;;;2.83;;
84519;SDS011;74755;43.084;0.132;2024-03-23T07:33:37;6.57;;;2.72;;
84519;SDS011;74755;43.084;0.132;2024-03-23T07:36:03;4.05;;;2.50;;
84519;SDS011;74755;43.084;0.132;2024-03-23T07:38:30;3.75;;;2.28;;
84519;SDS011;74755;43.084;0.132;2024-03-23T07:41:09;5.32;;;2.83;;
84519;SDS011;74755;43.084;0.132;2024-03-23T07:43:37;4.93;;;2.92;;
84519;SDS011;74755;43.084;0.132;2024-03-23T07:46:04;4.38;;;2.70;;
84519;SDS011;74755;43.084;0.132;2024-03-23T07:48:30;3.50;;;2.30;;
84519;SDS011;74755;43.084;0.132;2024-03-23T07:51:00;5.40;;;2.47;;
84519;SDS011;74755;43.084;0.132;2024-03-23T07:53:26;8.57;;;2.75;;
84519;SDS011;74755;43.084;0.132;2024-03-23T07:55:57;3.97;;;2.13;;
84519;SDS011;74755;43.084;0.132;2024-03-23T07:58:24;6.35;;;2.13;;
84519;SDS011;74755;43.084;0.132;2024-03-23T08:00:50;4.80;;;2.53;;
84519;SDS011;74755;43.084;0.132;2024-03-23T08:03:16;6.00;;;2.53;;
84519;SDS011;74755;43.084;0.132;2024-03-23T08:05:42;5.35;;;2.20;;
84519;SDS011;74755;43.084;0.132;2024-03-23T08:08:08;7.55;;;2.30;;
84519;SDS011;74755;43.084;0.132;2024-03-23T08:10:35;8.05;;;5.22;;
84519;SDS011;74755;43.084;0.132;2024-03-23T08:13:01;15.00;;;6.63;;
84519;SDS011;74755;43.084;0.132;2024-03-23T08:15:29;15.68;;;7.78;;
84519;SDS011;74755;43.084;0.132;2024-03-23T08:17:58;8.95;;;4.75;;
84519;SDS011;74755;43.084;0.132;2024-03-23T08:20:24;9.05;;;3.45;;
84519;SDS011;74755;43.084;0.132;2024-03-23T08:22:50;6.53;;;2.78;;
84519;SDS011;74755;43.084;0.132;2024-03-23T08:25:16;6.13;;;2.80;;
84519;SDS011;74755;43.084;0.132;2024-03-23T08:27:44;8.07;;;2.50;;
84519;SDS011;74755;43.084;0.132;2024-03-23T08:30:10;4.07;;;1.90;;
84519;SDS011;74755;43.084;0.132;2024-03-23T08:32:36;4.03;;;2.47;;
84519;SDS011;74755;43.084;0.132;2024-03-23T08:35:03;2.95;;;1.92;;
84519;SDS011;74755;43.084;0.132;2024-03-23T08:37:29;4.05;;;2.45;;
84519;SDS011;74755;43.084;0.132;2024-03-23T08:39:55;5.60;;;1.80;;
84519;SDS011;74755;43.084;0.132;2024-03-23T08:42:21;2.40;;;1.42;;
84519;SDS011;74755;43.084;0.132;2024-03-23T08:44:47;4.78;;;1.65;;
84519;SDS011;74755;43.084;0.132;2024-03-23T08:47:15;6.35;;;2.05;;
84519;SDS011;74755;43.084;0.132;2024-03-23T08:49:41;2.10;;;1.27;;
84519;SDS011;74755;43.084;0.132;2024-03-23T08:52:08;5.57;;;2.08;;
84519;SDS011;74755;43.084;0.132;2024-03-23T08:54:34;5.53;;;1.77;;
84519;SDS011;74755;43.084;0.132;2024-03-23T08:57:00;9.15;;;2.50;;
84519;SDS011;74755;43.084;0.132;2024-03-23T08:59:26;8.82;;;2.28;;
84519;SDS011;74755;43.084;0.132;2024-03-23T09:01:52;5.53;;;2.42;;
84519;SDS011;74755;43.084;0.132;2024-03-23T09:04:19;8.77;;;2.53;;
84519;SDS011;74755;43.084;0.132;2024-03-23T09:06:45;8.63;;;3.33;;
84519;SDS011;74755;43.084;0.132;2024-03-23T09:09:11;8.63;;;4.00;;
84519;SDS011;74755;43.084;0.132;2024-03-23T09:11:37;12.23;;;3.05;;
84519;SDS011;74755;43.084;0.132;2024-03-23T09:14:03;11.20;;;4.20;;
84519;SDS011;74755;43.084;0.132;2024-03-23T09:16:29;8.90;;;3.08;;
84519;SDS011;74755;43.084;0.132;2024-03-23T09:18:55;9.60;;;2.70;;
84519;SDS011;74755;43.084;0.132;2024-03-23T09:21:21;14.93;;;3.00;;
84519;SDS011;74755;43.084;0.132;2024-03-23T09:23:47;12.13;;;2.83;;
84519;SDS011;74755;43.084;0.132;2024-03-23T09:26:14;9.63;;;3.38;;
84519;SDS011;74755;43.084;0.132;2024-03-23T09:28:40;18.42;;;3.15;;
84519;SDS011;74755;43.084;0.132;2024-03-23T09:31:06;12.85;;;3.10;;
84519;SDS011;74755;43.084;0.132;2024-03-23T09:33:33;13.45;;;2.75;;
84519;SDS011;74755;43.084;0.132;2024-03-23T09:36:03;12.77;;;2.63;;
84519;SDS011;74755;43.084;0.132;2024-03-23T09:38:29;12.10;;;2.75;;
84519;SDS011;74755;43.084;0.132;2024-03-23T09:40:56;7.68;;;2.42;;
84519;SDS011;74755;43.084;0.132;2024-03-23T09:43:22;9.75;;;1.55;;
84519;SDS011;74755;43.084;0.132;2024-03-23T09:45:48;8.05;;;1.80;;
84519;SDS011;74755;43.084;0.132;2024-03-23T09:48:15;9.45;;;1.40;;
84519;SDS011;74755;43.084;0.132;2024-03-23T09:50:42;6.57;;;1.58;;
84519;SDS011;74755;43.084;0.132;2024-03-23T09:53:17;10.75;;;2.00;;
84519;SDS011;74755;43.084;0.132;2024-03-23T09:55:43;9.95;;;1.38;;
84519;SDS011;74755;43.084;0.132;2024-03-23T09:58:15;3.08;;;1.10;;
84519;SDS011;74755;43.084;0.132;2024-03-23T10:00:42;5.38;;;1.15;;
84519;SDS011;74755;43.084;0.132;2024-03-23T10:03:08;5.43;;;1.00;;
84519;SDS011;74755;43.084;0.132;2024-03-23T10:05:36;5.32;;;2.83;;
84519;SDS011;74755;43.084;0.132;2024-03-23T10:10:43;6.00;;;3.50;;
84519;SDS011;74755;43.084;0.132;2024-03-23T10:13:10;10.73;;;3.13;;
84519;SDS011;74755;43.084;0.132;2024-03-23T10:15:39;6.75;;;2.53;;
84519;SDS011;74755;43.084;0.132;2024-03-23T10:18:17;5.38;;;1.60;;
84519;SDS011;74755;43.084;0.132;2024-03-23T10:20:47;2.97;;;1.10;;
84519;SDS011;74755;43.084;0.132;2024-03-23T10:23:17;1.60;;;0.50;;
84519;SDS011;74755;43.084;0.132;2024-03-23T10:25:43;3.75;;;1.15;;
84519;SDS011;74755;43.084;0.132;2024-03-23T10:28:10;3.05;;;0.88;;
84519;SDS011;74755;43.084;0.132;2024-03-23T10:30:37;0.68;;;0.35;;
84519;SDS011;74755;43.084;0.132;2024-03-23T10:33:09;0.82;;;0.40;;
84519;SDS011;74755;43.084;0.132;2024-03-23T10:35:36;1.95;;;0.38;;
84519;SDS011;74755;43.084;0.132;2024-03-23T10:38:06;1.08;;;0.30;;
84519;SDS011;74755;43.084;0.132;2024-03-23T10:40:34;0.30;;;0.30;;
84519;SDS011;74755;43.084;0.132;2024-03-23T10:43:00;1.27;;;0.70;;
84519;SDS011;74755;43.084;0.132;2024-03-23T10:45:26;3.50;;;1.52;;
84519;SDS011;74755;43.084;0.132;2024-03-23T10:47:52;2.03;;;1.30;;
84519;SDS011;74755;43.084;0.132;2024-03-23T10:50:18;1.48;;;0.70;;
84519;SDS011;74755;43.084;0.132;2024-03-23T10:52:46;4.00;;;0.70;;
84519;SDS011;74755;43.084;0.132;2024-03-23T10:55:13;2.83;;;0.82;;
84519;SDS011;74755;43.084;0.132;2024-03-23T11:00:25;2.63;;;1.60;;
84519;SDS011;74755;43.084;0.132;2024-03-23T11:02:51;5.35;;;1.73;;
84519;SDS011;74755;43.084;0.132;2024-03-23T11:07:50;3.83;;;1.23;;
84519;SDS011;74755;43.084;0.132;2024-03-23T11:10:29;6.03;;;1.40;;
84519;SDS011;74755;43.084;0.132;2024-03-23T11:12:56;2.90;;;1.13;;
84519;SDS011;74755;43.084;0.132;2024-03-23T11:15:22;4.70;;;1.02;;
84519;SDS011;74755;43.084;0.132;2024-03-23T11:20:34;3.75;;;1.15;;
84519;SDS011;74755;43.084;0.132;2024-03-23T11:23:01;5.70;;;1.85;;
84519;SDS011;74755;43.084;0.132;2024-03-23T11:25:27;3.50;;;1.38;;
84519;SDS011;74755;43.084;0.132;2024-03-23T11:27:54;5.00;;;1.60;;
84519;SDS011;74755;43.084;0.132;2024-03-23T11:32:48;3.35;;;1.30;;
84519;SDS011;74755;43.084;0.132;2024-03-23T11:35:28;3.33;;;1.60;;
84519;SDS011;74755;43.084;0.132;2024-03-23T11:40:32;3.17;;;1.20;;
84519;SDS011;74755;43.084;0.132;2024-03-23T11:42:59;2.38;;;1.42;;
84519;SDS011;74755;43.084;0.132;2024-03-23T11:45:26;1.75;;;1.10;;
84519;SDS011;74755;43.084;0.132;2024-03-23T11:48:01;2.35;;;1.15;;
84519;SDS011;74755;43.084;0.132;2024-03-23T11:50:28;4.60;;;1.35;;
84519;SDS011;74755;43.084;0.132;2024-03-23T11:53:05;3.55;;;1.83;;
84519;SDS011;74755;43.084;0.132;2024-03-23T11:55:38;4.38;;;1.58;;
84519;SDS011;74755;43.084;0.132;2024-03-23T11:58:05;5.07;;;1.58;;
84519;SDS011;74755;43.084;0.132;2024-03-23T12:00:31;3.92;;;1.55;;
84519;SDS011;74755;43.084;0.132;2024-03-23T12:03:03;4.88;;;1.77;;
84519;SDS011;74755;43.084;0.132;2024-03-23T12:05:33;4.40;;;1.30;;
84519;SDS011;74755;43.084;0.132;2024-03-23T12:10:45;4.18;;;1.88;;
84519;SDS011;74755;43.084;0.132;2024-03-23T12:13:11;7.32;;;2.65;;
84519;SDS011;74755;43.084;0.132;2024-03-23T12:15:37;3.90;;;1.92;;
84519;SDS011;74755;43.084;0.132;2024-03-23T12:18:07;4.72;;;1.98;;
84519;SDS011;74755;43.084;0.132;2024-03-23T12:20:33;4.57;;;1.98;;
84519;SDS011;74755;43.084;0.132;2024-03-23T12:23:05;8.07;;;2.25;;
84519;SDS011;74755;43.084;0.132;2024-03-23T12:25:32;4.90;;;2.10;;
84519;SDS011;74755;43.084;0.132;2024-03-23T12:28:01;3.63;;;2.17;;
84519;SDS011;74755;43.084;0.132;2024-03-23T12:30:27;4.97;;;3.72;;
84519;SDS011;74755;43.084;0.132;2024-03-23T12:32:53;5.63;;;2.80;;
84519;SDS011;74755;43.084;0.132;2024-03-23T12:35:19;6.82;;;2.90;;
84519;SDS011;74755;43.084;0.132;2024-03-23T12:37:45;7.63;;;3.40;;
84519;SDS011;74755;43.084;0.132;2024-03-23T12:40:12;5.55;;;3.45;;
84519;SDS011;74755;43.084;0.132;2024-03-23T12:42:38;3.08;;;2.40;;
84519;SDS011;74755;43.084;0.132;2024-03-23T12:45:04;3.70;;;2.70;;
84519;SDS011;74755;43.084;0.132;2024-03-23T12:47:30;5.05;;;2.50;;
84519;SDS011;74755;43.084;0.132;2024-03-23T12:49:56;4.47;;;2.70;;
84519;SDS011;74755;43.084;0.132;2024-03-23T12:52:22;5.45;;;2.42;;
84519;SDS011;74755;43.084;0.132;2024-03-23T12:54:53;5.82;;;2.75;;
84519;SDS011;74755;43.084;0.132;2024-03-23T12:57:21;6.45;;;3.20;;
84519;SDS011;74755;43.084;0.132;2024-03-23T12:59:47;8.10;;;3.75;;
84519;SDS011;74755;43.084;0.132;2024-03-23T13:02:15;6.07;;;3.45;;
84519;SDS011;74755;43.084;0.132;2024-03-23T13:04:42;8.90;;;3.80;;
84519;SDS011;74755;43.084;0.132;2024-03-23T13:07:08;6.32;;;3.47;;
84519;SDS011;74755;43.084;0.132;2024-03-23T13:09:34;22.35;;;9.95;;
84519;SDS011;74755;43.084;0.132;2024-03-23T13:12:00;11.75;;;3.90;;
84519;SDS011;74755;43.084;0.132;2024-03-23T13:14:27;9.05;;;3.20;;
84519;SDS011;74755;43.084;0.132;2024-03-23T13:16:53;7.50;;;2.72;;
84519;SDS011;74755;43.084;0.132;2024-03-23T13:19:19;5.60;;;3.05;;
84519;SDS011;74755;43.084;0.132;2024-03-23T13:21:45;8.13;;;2.58;;
84519;SDS011;74755;43.084;0.132;2024-03-23T13:24:11;6.78;;;2.50;;
84519;SDS011;74755;43.084;0.132;2024-03-23T13:26:37;5.72;;;2.30;;
84519;SDS011;74755;43.084;0.132;2024-03-23T13:29:03;7.50;;;2.95;;
84519;SDS011;74755;43.084;0.132;2024-03-23T13:31:29;9.25;;;2.97;;
84519;SDS011;74755;43.084;0.132;2024-03-23T13:33:55;6.88;;;2.75;;
84519;SDS011;74755;43.084;0.132;2024-03-23T13:36:21;11.15;;;3.10;;
84519;SDS011;74755;43.084;0.132;2024-03-23T13:38:50;7.55;;;2.78;;
84519;SDS011;74755;43.084;0.132;2024-03-23T13:41:16;7.65;;;2.92;;
84519;SDS011;74755;43.084;0.132;2024-03-23T13:43:42;5.43;;;2.40;;
84519;SDS011;74755;43.084;0.132;2024-03-23T13:46:08;6.22;;;2.58;;
84519;SDS011;74755;43.084;0.132;2024-03-23T13:48:34;7.95;;;2.75;;
84519;SDS011;74755;43.084;0.132;2024-03-23T13:51:00;25.95;;;10.40;;
84519;SDS011;74755;43.084;0.132;2024-03-23T13:53:27;32.90;;;14.65;;
84519;SDS011;74755;43.084;0.132;2024-03-23T13:55:53;12.57;;;3.55;;
84519;SDS011;74755;43.084;0.132;2024-03-23T13:58:19;7.47;;;2.80;;
84519;SDS011;74755;43.084;0.132;2024-03-23T14:00:45;14.55;;;3.42;;
84519;SDS011;74755;43.084;0.132;2024-03-23T14:03:12;10.90;;;4.55;;
84519;SDS011;74755;43.084;0.132;2024-03-23T14:05:39;8.05;;;3.50;;
84519;SDS011;74755;43.084;0.132;2024-03-23T14:08:05;9.35;;;2.97;;
84519;SDS011;74755;43.084;0.132;2024-03-23T14:10:32;11.10;;;2.90;;
84519;SDS011;74755;43.084;0.132;2024-03-23T14:12:58;16.90;;;3.85;;
84519;SDS011;74755;43.084;0.132;2024-03-23T14:15:27;9.52;;;2.72;;
84519;SDS011;74755;43.084;0.132;2024-03-23T14:17:53;8.88;;;2.90;;
84519;SDS011;74755;43.084;0.132;2024-03-23T14:20:22;9.30;;;3.75;;
84519;SDS011;74755;43.084;0.132;2024-03-23T14:22:49;5.28;;;2.42;;
84519;SDS011;74755;43.084;0.132;2024-03-23T14:25:15;11.93;;;3.25;;
84519;SDS011;74755;43.084;0.132;2024-03-23T14:27:43;6.63;;;2.70;;
84519;SDS011;74755;43.084;0.132;2024-03-23T14:30:09;5.38;;;2.20;;
84519;SDS011;74755;43.084;0.132;2024-03-23T14:32:37;4.80;;;2.17;;
84519;SDS011;74755;43.084;0.132;2024-03-23T14:35:03;8.60;;;2.10;;
84519;SDS011;74755;43.084;0.132;2024-03-23T14:37:30;9.93;;;2.47;;
84519;SDS011;74755;43.084;0.132;2024-03-23T14:39:56;8.30;;;2.53;;
84519;SDS011;74755;43.084;0.132;2024-03-23T14:42:22;8.68;;;2.45;;
84519;SDS011;74755;43.084;0.132;2024-03-23T14:44:53;8.38;;;2.67;;
84519;SDS011;74755;43.084;0.132;2024-03-23T14:47:19;9.73;;;2.75;;
84519;SDS011;74755;43.084;0.132;2024-03-23T14:49:46;7.60;;;2.60;;
84519;SDS011;74755;43.084;0.132;2024-03-23T14:52:13;9.57;;;2.38;;
84519;SDS011;74755;43.084;0.132;2024-03-23T14:54:39;6.22;;;2.40;;
84519;SDS011;74755;43.084;0.132;2024-03-23T14:57:05;6.90;;;1.80;;
84519;SDS011;74755;43.084;0.132;2024-03-23T14:59:35;5.32;;;1.90;;
84519;SDS011;74755;43.084;0.132;2024-03-23T15:02:03;4.20;;;1.77;;
84519;SDS011;74755;43.084;0.132;2024-03-23T15:04:29;7.45;;;2.35;;
84519;SDS011;74755;43.084;0.132;2024-03-23T15:06:55;2.55;;;1.80;;
84519;SDS011;74755;43.084;0.132;2024-03-23T15:09:21;4.68;;;1.90;;
84519;SDS011;74755;43.084;0.132;2024-03-23T15:11:47;5.63;;;1.85;;
84519;SDS011;74755;43.084;0.132;2024-03-23T15:14:13;9.90;;;3.72;;
84519;SDS011;74755;43.084;0.132;2024-03-23T15:16:39;6.57;;;2.55;;
84519;SDS011;74755;43.084;0.132;2024-03-23T15:19:07;6.85;;;2.15;;
84519;SDS011;74755;43.084;0.132;2024-03-23T15:21:33;29.27;;;9.75;;
84519;SDS011;74755;43.084;0.132;2024-03-23T15:23:59;8.77;;;2.63;;
84519;SDS011;74755;43.084;0.132;2024-03-23T15:26:25;7.43;;;1.85;;
84519;SDS011;74755;43.084;0.132;2024-03-23T15:28:51;4.13;;;1.63;;
84519;SDS011;74755;43.084;0.132;2024-03-23T15:31:23;4.43;;;2.17;;
84519;SDS011;74755;43.084;0.132;2024-03-23T15:33:49;6.35;;;2.55;;
84519;SDS011;74755;43.084;0.132;2024-03-23T15:36:16;8.48;;;3.10;;
84519;SDS011;74755;43.084;0.132;2024-03-23T15:38:42;10.65;;;3.00;;
84519;SDS011;74755;43.084;0.132;2024-03-23T15:41:08;21.13;;;8.45;;
84519;SDS011;74755;43.084;0.132;2024-03-23T15:43:35;12.30;;;3.97;;
84519;SDS011;74755;43.084;0.132;2024-03-23T15:46:03;7.63;;;3.08;;
84519;SDS011;74755;43.084;0.132;2024-03-23T15:48:29;4.10;;;2.10;;
84519;SDS011;74755;43.084;0.132;2024-03-23T15:51:03;4.57;;;1.95;;
84519;SDS011;74755;43.084;0.132;2024-03-23T15:53:29;5.88;;;2.70;;